sensor_id;sensor_type;location;lat;lon;timestamp;pressure;altitude;pressure_sealevel;temperature;humidity
6150;BME280;3106;42.670;23.318;2022-11-15T13:07:57;94494.28;;;10.08;92.45
6150;BME280;3106;42.670;23.318;2022-11-15T13:10:31;94482.78;;;9.95;93.08
6150;BME280;3106;42.670;23.318;2022-11-15T13:13:01;94491.25;;;9.97;93.60
6150;BME280;3106;42.670;23.318;2022-11-15T13:15:56;94513.84;;;10.12;93.57
6150;BME280;3106;42.670;23.318;2022-11-15T13:18:31;94455.69;;;9.81;94.04
6150;BME280;3106;42.670;23.318;2022-11-15T13:20:59;94494.19;;;10.04;93.91
6150;BME280;3106;42.670;23.318;2022-11-15T13:23:53;94478.81;;;9.89;94.10
6150;BME280;3106;42.670;23.318;2022-11-15T13:26:21;94406.44;;;9.55;93.85
6150;BME280;3106;42.670;23.318;2022-11-15T13:28:50;94433.44;;;9.77;94.08
6150;BME280;3106;42.670;23.318;2022-11-15T13:31:29;94459.91;;;10.06;93.60
6150;BME280;3106;42.670;23.318;2022-11-15T13:34:25;94490.25;;;10.26;92.94
6150;BME280;3106;42.670;23.318;2022-11-15T13:36:58;94480.16;;;10.07;93.73
6150;BME280;3106;42.670;23.318;2022-11-15T13:39:30;94494.16;;;10.16;93.92
6150;BME280;3106;42.670;23.318;2022-11-15T13:41:58;94487.91;;;10.24;93.51
6150;BME280;3106;42.670;23.318;2022-11-15T13:44:26;94480.56;;;10.21;93.07
6150;BME280;3106;42.670;23.318;2022-11-15T13:47:05;94462.97;;;10.20;93.09
6150;BME280;3106;42.670;23.318;2022-11-15T13:49:36;94469.44;;;10.19;92.72
6150;BME280;3106;42.670;23.318;2022-11-15T13:52:05;94428.50;;;9.91;93.08
6150;BME280;3106;42.670;23.318;2022-11-15T13:54:40;94458.66;;;10.04;93.47
6150;BME280;3106;42.670;23.318;2022-11-15T13:57:12;94453.66;;;10.02;93.57
6150;BME280;3106;42.670;23.318;2022-11-15T13:59:45;94473.97;;;10.19;93.74
6150;BME280;3106;42.670;23.318;2022-11-15T14:02:15;94463.78;;;10.09;93.97
6150;BME280;3106;42.670;23.318;2022-11-15T14:04:49;94486.13;;;10.16;94.02
6150;BME280;3106;42.670;23.318;2022-11-15T14:07:19;94447.44;;;9.86;94.11
6150;BME280;3106;42.670;23.318;2022-11-15T14:09:49;94475.03;;;10.02;94.43
6150;BME280;3106;42.670;23.318;2022-11-15T14:12:26;94387.75;;;9.43;94.88
6150;BME280;3106;42.670;23.318;2022-11-15T14:14:55;94483.03;;;10.02;94.83
6150;BME280;3106;42.670;23.318;2022-11-15T14:17:36;94455.56;;;9.78;95.34
6150;BME280;3106;42.670;23.318;2022-11-15T14:20:19;94445.91;;;9.49;96.47
6150;BME280;3106;42.670;23.318;2022-11-15T14:23:23;94464.34;;;9.54;96.80
6150;BME280;3106;42.670;23.318;2022-11-15T14:26:38;94367.09;;;8.80;96.88
6150;BME280;3106;42.670;23.318;2022-11-15T14:29:26;94476.13;;;9.29;97.95
6150;BME280;3106;42.670;23.318;2022-11-15T14:32:13;94447.22;;;9.07;98.59
6150;BME280;3106;42.670;23.318;2022-11-15T14:34:41;94422.06;;;8.85;99.41
6150;BME280;3106;42.670;23.318;2022-11-15T14:37:18;94452.63;;;8.87;99.98
6150;BME280;3106;42.670;23.318;2022-11-15T14:39:45;94434.25;;;8.74;100.00
6150;BME280;3106;42.670;23.318;2022-11-15T14:42:15;94458.47;;;8.81;100.00
6150;BME280;3106;42.670;23.318;2022-11-15T14:44:43;94389.16;;;8.24;100.00
6150;BME280;3106;42.670;23.318;2022-11-15T14:47:14;94418.16;;;8.38;100.00
6150;BME280;3106;42.670;23.318;2022-11-15T14:49:42;94446.84;;;8.53;100.00
6150;BME280;3106;42.670;23.318;2022-11-15T14:52:28;94437.41;;;8.43;100.00
6150;BME280;3106;42.670;23.318;2022-11-15T14:55:00;94389.59;;;8.06;100.00
6150;BME280;3106;42.670;23.318;2022-11-15T14:57:30;94447.97;;;8.31;100.00
6150;BME280;3106;42.670;23.318;2022-11-15T14:59:57;94448.97;;;8.27;100.00
6150;BME280;3106;42.670;23.318;2022-11-15T15:02:27;94441.97;;;8.14;100.00
6150;BME280;3106;42.670;23.318;2022-11-15T15:05:17;94474.31;;;8.33;100.00
6150;BME280;3106;42.670;23.318;2022-11-15T15:08:08;94461.63;;;8.09;100.00
6150;BME280;3106;42.670;23.318;2022-11-15T15:10:38;94466.75;;;8.14;100.00
6150;BME280;3106;42.670;23.318;2022-11-15T15:13:12;94423.44;;;7.85;100.00
6150;BME280;3106;42.670;23.318;2022-11-15T15:15:42;94463.63;;;8.12;100.00
6150;BME280;3106;42.670;23.318;2022-11-15T15:18:09;94441.13;;;8.01;100.00
6150;BME280;3106;42.670;23.318;2022-11-15T15:20:39;94406.94;;;7.71;100.00
6150;BME280;3106;42.670;23.318;2022-11-15T15:23:15;94438.81;;;7.79;100.00
6150;BME280;3106;42.670;23.318;2022-11-15T15:25:46;94451.22;;;7.96;100.00
6150;BME280;3106;42.670;23.318;2022-11-15T15:28:15;94360.47;;;7.48;100.00
6150;BME280;3106;42.670;23.318;2022-11-15T15:30:48;94435.25;;;7.96;100.00
6150;BME280;3106;42.670;23.318;2022-11-15T15:33:16;94394.03;;;7.81;100.00
6150;BME280;3106;42.670;23.318;2022-11-15T15:35:43;94451.69;;;8.18;100.00
6150;BME280;3106;42.670;23.318;2022-11-15T15:38:12;94395.91;;;7.81;100.00
6150;BME280;3106;42.670;23.318;2022-11-15T15:40:40;94418.28;;;8.00;100.00
6150;BME280;3106;42.670;23.318;2022-11-15T15:43:08;94401.81;;;7.86;100.00
6150;BME280;3106;42.670;23.318;2022-11-15T15:45:37;94364.56;;;7.66;100.00
6150;BME280;3106;42.670;23.318;2022-11-15T15:48:05;94418.69;;;8.11;100.00
6150;BME280;3106;42.670;23.318;2022-11-15T15:50:33;94405.97;;;7.96;100.00
6150;BME280;3106;42.670;23.318;2022-11-15T15:53:02;94367.94;;;7.75;100.00
6150;BME280;3106;42.670;23.318;2022-11-15T15:55:30;94418.81;;;8.14;100.00
6150;BME280;3106;42.670;23.318;2022-11-15T15:57:57;94444.34;;;8.36;100.00
6150;BME280;3106;42.670;23.318;2022-11-15T16:00:25;94437.91;;;8.37;100.00
6150;BME280;3106;42.670;23.318;2022-11-15T16:09:28;94434.16;;;8.17;100.00
6150;BME280;3106;42.670;23.318;2022-11-15T16:12:12;94412.34;;;8.03;100.00
6150;BME280;3106;42.670;23.318;2022-11-15T16:14:42;94358.59;;;7.69;100.00
6150;BME280;3106;42.670;23.318;2022-11-15T16:18:30;94442.75;;;8.23;100.00
6150;BME280;3106;42.670;23.318;2022-11-15T16:21:14;94395.38;;;7.87;100.00
6150;BME280;3106;42.670;23.318;2022-11-15T16:23:44;94431.53;;;8.09;100.00
6150;BME280;3106;42.670;23.318;2022-11-15T16:26:20;94429.88;;;8.04;100.00
6150;BME280;3106;42.670;23.318;2022-11-15T16:29:01;94451.53;;;8.15;100.00
6150;BME280;3106;42.670;23.318;2022-11-15T16:31:30;94431.34;;;7.93;100.00
6150;BME280;3106;42.670;23.318;2022-11-15T16:33:58;94425.38;;;7.76;100.00
6150;BME280;3106;42.670;23.318;2022-11-15T16:36:26;94428.81;;;7.76;100.00
6150;BME280;3106;42.670;23.318;2022-11-15T16:38:55;94380.38;;;7.42;100.00
6150;BME280;3106;42.670;23.318;2022-11-15T16:41:24;94431.97;;;7.70;100.00
6150;BME280;3106;42.670;23.318;2022-11-15T16:43:51;94455.53;;;7.80;100.00
6150;BME280;3106;42.670;23.318;2022-11-15T16:46:21;94393.22;;;7.40;100.00
6150;BME280;3106;42.670;23.318;2022-11-15T16:48:49;94385.31;;;7.32;100.00
6150;BME280;3106;42.670;23.318;2022-11-15T16:51:16;94359.75;;;7.10;100.00
6150;BME280;3106;42.670;23.318;2022-11-15T16:53:45;94442.16;;;7.68;100.00
6150;BME280;3106;42.670;23.318;2022-11-15T16:56:18;94399.97;;;7.38;100.00
6150;BME280;3106;42.670;23.318;2022-11-15T16:58:48;94411.19;;;7.43;100.00
6150;BME280;3106;42.670;23.318;2022-11-15T17:01:21;94435.16;;;7.63;100.00
6150;BME280;3106;42.670;23.318;2022-11-15T17:03:49;94437.66;;;7.68;100.00
6150;BME280;3106;42.670;23.318;2022-11-15T17:06:16;94388.34;;;7.42;100.00
6150;BME280;3106;42.670;23.318;2022-11-15T17:08:44;94427.50;;;7.62;100.00
6150;BME280;3106;42.670;23.318;2022-11-15T17:11:14;94389.63;;;7.36;100.00
6150;BME280;3106;42.670;23.318;2022-11-15T17:13:41;94360.06;;;7.17;100.00
6150;BME280;3106;42.670;23.318;2022-11-15T17:16:12;94396.31;;;7.42;100.00
6150;BME280;3106;42.670;23.318;2022-11-15T17:18:40;94332.16;;;7.03;100.00
6150;BME280;3106;42.670;23.318;2022-11-15T17:21:12;94337.28;;;7.08;100.00
6150;BME280;3106;42.670;23.318;2022-11-15T17:23:41;94406.00;;;7.46;100.00
6150;BME280;3106;42.670;23.318;2022-11-15T17:26:08;94422.84;;;7.59;100.00
6150;BME280;3106;42.670;23.318;2022-11-15T17:28:37;94405.34;;;7.49;100.00
6150;BME280;3106;42.670;23.318;2022-11-15T17:31:06;94373.22;;;7.34;100.00
6150;BME280;3106;42.670;23.318;2022-11-15T17:33:35;94374.78;;;7.35;100.00
6150;BME280;3106;42.670;23.318;2022-11-15T17:36:05;94381.16;;;7.43;100.00
6150;BME280;3106;42.670;23.318;2022-11-15T17:38:33;94395.06;;;7.48;100.00
6150;BME280;3106;42.670;23.318;2022-11-15T17:41:01;94372.38;;;7.42;100.00
6150;BME280;3106;42.670;23.318;2022-11-15T17:43:30;94366.69;;;7.32;100.00
6150;BME280;3106;42.670;23.318;2022-11-15T17:45:58;94379.16;;;7.40;100.00
6150;BME280;3106;42.670;23.318;2022-11-15T17:48:29;94411.69;;;7.65;100.00
6150;BME280;3106;42.670;23.318;2022-11-15T17:51:01;94380.00;;;7.52;100.00
6150;BME280;3106;42.670;23.318;2022-11-15T17:53:32;94390.06;;;7.46;100.00
6150;BME280;3106;42.670;23.318;2022-11-15T17:56:32;94414.28;;;7.45;100.00
6150;BME280;3106;42.670;23.318;2022-11-15T17:59:02;94350.19;;;7.18;100.00
6150;BME280;3106;42.670;23.318;2022-11-15T18:01:30;94315.28;;;6.99;100.00
6150;BME280;3106;42.670;23.318;2022-11-15T18:03:58;94358.81;;;7.15;100.00
6150;BME280;3106;42.670;23.318;2022-11-15T18:06:33;94390.97;;;7.22;100.00
6150;BME280;3106;42.670;23.318;2022-11-15T18:09:03;94411.09;;;7.31;100.00
6150;BME280;3106;42.670;23.318;2022-11-15T18:11:33;94319.47;;;6.79;100.00
6150;BME280;3106;42.670;23.318;2022-11-15T18:14:16;94304.28;;;6.80;100.00
6150;BME280;3106;42.670;23.318;2022-11-15T18:16:44;94366.47;;;7.16;100.00
6150;BME280;3106;42.670;23.318;2022-11-15T18:19:12;94370.94;;;7.24;100.00
6150;BME280;3106;42.670;23.318;2022-11-15T18:21:42;94348.06;;;7.11;100.00
6150;BME280;3106;42.670;23.318;2022-11-15T18:24:26;94315.50;;;6.85;100.00
6150;BME280;3106;42.670;23.318;2022-11-15T18:26:53;94350.75;;;7.03;100.00
6150;BME280;3106;42.670;23.318;2022-11-15T18:29:21;94376.13;;;7.21;100.00
6150;BME280;3106;42.670;23.318;2022-11-15T18:31:51;94374.31;;;7.33;100.00
6150;BME280;3106;42.670;23.318;2022-11-15T18:34:22;94298.47;;;6.86;100.00
6150;BME280;3106;42.670;23.318;2022-11-15T18:40:17;94366.41;;;7.25;100.00
6150;BME280;3106;42.670;23.318;2022-11-15T18:42:48;94327.81;;;6.90;100.00
6150;BME280;3106;42.670;23.318;2022-11-15T18:45:16;94370.88;;;7.12;100.00
6150;BME280;3106;42.670;23.318;2022-11-15T18:47:43;94368.28;;;6.95;100.00
6150;BME280;3106;42.670;23.318;2022-11-15T18:50:13;94296.63;;;6.49;100.00
6150;BME280;3106;42.670;23.318;2022-11-15T18:52:45;94313.56;;;6.65;100.00
6150;BME280;3106;42.670;23.318;2022-11-15T18:58:12;94304.59;;;6.49;100.00
6150;BME280;3106;42.670;23.318;2022-11-15T19:00:40;94327.28;;;6.76;100.00
6150;BME280;3106;42.670;23.318;2022-11-15T19:03:07;94353.63;;;6.89;100.00
6150;BME280;3106;42.670;23.318;2022-11-15T19:05:36;94350.31;;;6.92;100.00
6150;BME280;3106;42.670;23.318;2022-11-15T19:08:06;94349.88;;;6.90;100.00
6150;BME280;3106;42.670;23.318;2022-11-15T19:10:42;94289.88;;;6.52;100.00
6150;BME280;3106;42.670;23.318;2022-11-15T19:13:09;94366.41;;;6.96;100.00
6150;BME280;3106;42.670;23.318;2022-11-15T19:15:38;94344.75;;;6.85;100.00
6150;BME280;3106;42.670;23.318;2022-11-15T19:18:08;94385.25;;;7.11;100.00
6150;BME280;3106;42.670;23.318;2022-11-15T19:20:35;94283.81;;;6.51;100.00
6150;BME280;3106;42.670;23.318;2022-11-15T19:23:03;94305.78;;;6.60;100.00
6150;BME280;3106;42.670;23.318;2022-11-15T19:25:32;94281.59;;;6.53;100.00
6150;BME280;3106;42.670;23.318;2022-11-15T19:28:02;94308.53;;;6.72;100.00
6150;BME280;3106;42.670;23.318;2022-11-15T19:30:30;94274.00;;;6.43;100.00
6150;BME280;3106;42.670;23.318;2022-11-15T19:33:27;94356.56;;;6.96;100.00
6150;BME280;3106;42.670;23.318;2022-11-15T19:36:11;94308.69;;;6.76;100.00
6150;BME280;3106;42.670;23.318;2022-11-15T19:38:45;94295.44;;;6.67;100.00
6150;BME280;3106;42.670;23.318;2022-11-15T22:24:50;94193.38;;;5.82;100.00
6150;BME280;3106;42.670;23.318;2022-11-15T22:27:17;94223.28;;;5.99;100.00
6150;BME280;3106;42.670;23.318;2022-11-15T22:29:44;94155.53;;;5.56;100.00
6150;BME280;3106;42.670;23.318;2022-11-15T22:32:18;94169.84;;;5.72;100.00
6150;BME280;3106;42.670;23.318;2022-11-15T22:42:53;94193.47;;;6.02;100.00
6150;BME280;3106;42.670;23.318;2022-11-15T22:45:26;94198.91;;;6.05;100.00
6150;BME280;3106;42.670;23.318;2022-11-15T22:47:54;94204.97;;;6.06;100.00
6150;BME280;3106;42.670;23.318;2022-11-15T22:50:21;94140.34;;;5.65;100.00
6150;BME280;3106;42.670;23.318;2022-11-15T22:52:49;94174.31;;;5.88;100.00
6150;BME280;3106;42.670;23.318;2022-11-15T22:55:16;94205.78;;;6.06;100.00
6150;BME280;3106;42.670;23.318;2022-11-15T22:57:43;94214.78;;;6.14;100.00
6150;BME280;3106;42.670;23.318;2022-11-15T23:00:14;94183.78;;;5.97;100.00
6150;BME280;3106;42.670;23.318;2022-11-15T23:02:43;94219.00;;;6.15;100.00
6150;BME280;3106;42.670;23.318;2022-11-15T23:05:10;94180.09;;;5.90;100.00
6150;BME280;3106;42.670;23.318;2022-11-15T23:07:37;94196.00;;;5.90;100.00
6150;BME280;3106;42.670;23.318;2022-11-15T23:10:05;94145.19;;;5.63;100.00
6150;BME280;3106;42.670;23.318;2022-11-15T23:12:46;94197.06;;;5.97;100.00
6150;BME280;3106;42.670;23.318;2022-11-15T23:15:31;94196.59;;;5.95;100.00
6150;BME280;3106;42.670;23.318;2022-11-15T23:18:12;94191.00;;;5.89;100.00
6150;BME280;3106;42.670;23.318;2022-11-15T23:20:39;94163.56;;;5.76;100.00
6150;BME280;3106;42.670;23.318;2022-11-15T23:23:06;94156.88;;;5.79;100.00
6150;BME280;3106;42.670;23.318;2022-11-15T23:25:32;94201.66;;;6.17;100.00
6150;BME280;3106;42.670;23.318;2022-11-15T23:28:01;94187.16;;;6.15;100.00
6150;BME280;3106;42.670;23.318;2022-11-15T23:30:28;94195.44;;;6.13;100.00
6150;BME280;3106;42.670;23.318;2022-11-15T23:33:14;94167.00;;;5.85;100.00
6150;BME280;3106;42.670;23.318;2022-11-15T23:35:59;94168.69;;;5.90;100.00
6150;BME280;3106;42.670;23.318;2022-11-15T23:38:26;94156.53;;;5.89;100.00
6150;BME280;3106;42.670;23.318;2022-11-15T23:40:53;94189.22;;;6.09;100.00
6150;BME280;3106;42.670;23.318;2022-11-15T23:43:21;94171.34;;;5.90;100.00
6150;BME280;3106;42.670;23.318;2022-11-15T23:45:48;94170.78;;;5.67;100.00
6150;BME280;3106;42.670;23.318;2022-11-15T23:48:16;94162.00;;;5.75;100.00
6150;BME280;3106;42.670;23.318;2022-11-15T23:50:45;94167.94;;;5.81;100.00
6150;BME280;3106;42.670;23.318;2022-11-15T23:53:15;94157.03;;;5.74;100.00
6150;BME280;3106;42.670;23.318;2022-11-15T23:55:42;94131.16;;;5.71;100.00
6150;BME280;3106;42.670;23.318;2022-11-15T23:58:09;94159.91;;;5.97;100.00
